Latest Coastal Weather Observations for Cape Nelson

IDS60701

Issued at 11:45 pm CDT Monday 20 October 2014 (issued every 10 minutes, with the page automatically refreshed every 10 minutes)

About coastal observations | Map of coastal stations | Coastal observations for SA | Marine services | Other Formats
Station Details ID: 090184 Name: CAPE NELSON LIGHTHOUSE Lat: -38.43 Lon: 141.54 Height: 45.4 m
Data from the previous 72 hours. | See also: Recent months at Cape Nelson
Date/Time
CDT
Temp

°C
Wind Pressure Rain
since 9am
mm
Weather Cloud Vis
km
Sea
Height
m
Swell
Dir
 
Speed
knots
Gust
knots
hPa Trend Height
m
Period
s
Dir
20/11:30pm 12.3 E 20 26 1027.3 - 0.0 - - - - - - -
20/11:00pm 12.3 E 20 28 1027.5 - 0.0 - - - - - - -
20/10:30pm 12.5 E 17 25 1027.7 - 0.0 - - - - - - -
20/10:00pm 13.0 E 22 31 1027.6 - 0.0 - - - - - - -
20/09:46pm 13.0 E 21 31 1027.7 - 0.0 - - - - - - -
20/09:30pm 13.1 E 23 31 1027.7 - 0.0 - - - - - - -
20/09:14pm 13.0 E 24 34 1027.6 - 0.0 - - - - - - -
20/09:00pm 13.0 E 25 34 1027.5 - 0.0 - - - - - - -
20/08:30pm 12.9 E 27 34 1027.2 - 0.0 - - - - - - -
20/08:00pm 12.9 E 29 35 1026.9 - 0.0 - - - - - - -
20/07:30pm 12.7 E 28 34 1026.9 - 0.0 - - - - - - -
20/07:00pm 12.9 E 27 32 1026.8 - 0.0 - - - - - - -
20/06:30pm 13.1 E 26 32 1027.0 - 0.0 - - - - - - -
20/06:00pm 13.4 E 22 30 1027.3 - 0.0 - - - - - - -
20/05:30pm 13.2 E 21 29 1027.6 - 0.0 - - - - - - -
20/05:00pm 13.4 E 19 29 1028.0 - 0.0 - - - - - - -
20/04:57pm 13.3 E 19 29 1027.9 - 0.0 - - - - - - -
20/04:30pm 13.1 E 19 27 1028.2 - 0.0 - - - - - - -
20/04:00pm 13.3 ESE 18 26 1028.6 - 0.0 - - - - - - -
20/03:30pm 13.6 E 20 27 1029.0 - 0.0 - - - - - - -
20/03:00pm 13.6 E 21 27 1029.0 - 0.0 - - - - - - -
20/02:41pm 13.6 E 21 31 1029.1 - 0.0 - - - - - - -
20/02:30pm 13.5 E 21 27 1029.2 - 0.0 - - - - - - -
20/02:00pm 13.7 E 22 28 1029.3 - 0.0 - - - - - - -
20/01:30pm 13.6 E 22 28 1029.6 - 0.0 - - - - - - -
20/01:00pm 13.4 E 23 28 1029.9 - 0.0 - - - - - - -
20/12:30pm 13.4 E 24 29 1030.3 - 0.0 - - - - - - -
20/12:00pm 13.6 E 25 31 1030.5 - 0.0 - - - - - - -
20/11:30am 13.3 E 25 31 1030.7 - 0.0 - - - - - - -
20/11:00am 13.3 E 26 32 1031.1 - 0.0 - - - - - - -
20/10:30am 13.3 E 25 33 1031.1 - 0.0 - - - - - - -
20/10:24am 13.7 E 25 35 1031.2 - 0.0 - - - - - - -
20/10:00am 13.3 E 26 33 1031.0 - 0.0 - - - - - - -
20/09:30am 12.7 E 24 30 1031.0 - 0.0 - - - - - - -
20/09:00am 12.9 E 24 32 1030.9 - 0.0 - - - - - - -
20/08:30am 12.2 E 24 30 1031.0 - 0.0 - - - - - - -
20/08:00am 12.2 E 23 29 1030.7 - 0.0 - - - - - - -
20/07:30am 11.9 E 23 33 1030.3 - 0.0 - - - - - - -
20/07:00am 11.6 E 22 28 1030.2 - 0.0 - - - - - - -
20/06:30am 11.5 E 23 30 1029.6 - 0.0 - - - - - - -
20/06:13am 11.5 ESE 19 29 1029.4 - 0.0 - - - - - - -
20/06:00am 11.8 E 22 29 1029.4 - 0.0 - - - - - - -
20/05:30am 11.4 E 20 25 1029.4 - 0.0 - - - - - - -
20/05:00am 11.4 ESE 16 23 1029.2 - 0.0 - - - - - - -
20/04:30am 11.5 ESE 17 23 1029.1 - 0.0 - - - - - - -
20/04:01am 11.6 ESE 15 25 1028.9 - 0.0 - - - - - - -
20/04:00am 11.7 ESE 16 25 1028.8 - 0.0 - - - - - - -
20/03:55am 11.7 ESE 15 25 1028.8 - 0.0 - - - - - - -
20/03:30am 11.6 E 17 25 1028.9 - 0.0 - - - - - - -
20/03:14am 11.7 E 17 27 1028.9 - 0.0 - - - - - - -
20/03:00am 11.3 E 17 24 1029.0 - 0.0 - - - - - - -
20/02:49am 11.4 E 17 27 1028.9 - 0.0 - - - - - - -
20/02:30am 11.4 ESE 15 24 1028.8 - 0.0 - - - - - - -
20/02:00am 11.5 E 15 19 1029.3 - 0.0 - - - - - - -
20/01:30am 11.6 SE 15 23 1029.0 - 0.0 - - - - - - -
20/01:00am 11.6 SE 15 22 1029.5 - 0.0 - - - - - - -
20/12:31am 11.8 SE 15 25 1029.5 - 0.0 - - - - - - -
20/12:30am 11.7 SE 16 25 1029.5 - 0.0 - - - - - - -
20/12:00am 11.9 SE 17 23 1029.6 - 0.0 - - - - - - -
 
Date/Time
CDT
Temp

°C
Wind Pressure Rain
since 9am
mm
Weather Cloud Vis
km
Sea
Height
m
Swell
Dir
 
Speed
knots
Gust
knots
hPa Trend Height
m
Period
s
Dir
19/11:30pm 12.0 ESE 14 21 1029.6 - 0.0 - - - - - - -
19/11:00pm 12.1 SE 15 23 1029.4 - 0.0 - - - - - - -
19/10:30pm 12.1 SE 16 22 1029.5 - 0.0 - - - - - - -
19/10:00pm 11.9 SSE 21 27 1029.0 - 0.0 - - - - - - -
19/09:30pm 11.8 SSE 19 25 1029.1 - 0.0 - - - - - - -
19/09:19pm 11.6 SE 17 27 1028.9 - 0.0 - - - - - - -
19/09:00pm 11.4 SSE 20 26 1029.1 - 0.0 - - - - - - -
19/08:30pm 11.8 SSE 20 27 1028.4 - 0.0 - - - - - - -
19/08:00pm 12.0 SSE 16 22 1027.9 - 0.0 - - - - - - -
19/07:30pm 12.3 SSE 16 22 1027.8 - 0.0 - - - - - - -
19/07:00pm 11.9 SSE 17 22 1026.9 - 0.0 - - - - - - -
19/06:30pm 12.1 S 19 23 1026.7 - 0.0 - - - - - - -
19/06:00pm 13.0 S 19 28 1026.0 - 0.0 - - - - - - -
19/05:30pm 13.0 S 17 24 1024.7 - 0.0 - - - - - - -
19/05:00pm 14.2 S 15 21 1024.3 - 0.0 - - - - - - -
19/04:30pm 14.6 S 11 16 1024.5 - 0.0 - - - - - - -
19/04:00pm 14.5 S 12 17 1024.4 - 0.0 - - - - - - -
19/03:30pm 14.4 S 15 20 1023.9 - 0.0 - - - - - - -
19/03:00pm 14.5 S 12 17 1024.0 - 0.0 - - - - - - -
19/02:30pm 14.5 S 10 14 1023.5 - 0.0 - - - - - - -
19/02:00pm 14.5 S 11 15 1022.7 - 0.0 - - - - - - -
19/01:30pm 14.8 S 13 16 1023.0 - 0.0 - - - - - - -
19/01:00pm 14.5 S 9 13 1022.0 - 0.0 - - - - - - -
19/12:30pm 14.7 S 11 15 1022.1 - 0.0 - - - - - - -
19/12:00pm 14.1 S 13 19 1021.8 - 0.0 - - - - - - -
19/11:30am 14.9 S 9 15 1021.9 - 0.0 - - - - - - -
19/11:00am 14.3 S 13 16 1021.5 - 0.0 - - - - - - -
19/10:30am 14.3 S 9 13 1021.5 - 0.0 - - - - - - -
19/10:00am 14.2 S 6 8 1020.8 - 0.0 - - - - - - -
19/09:30am 14.2 S 6 8 1020.9 - 0.0 - - - - - - -
19/09:00am 14.7 S 5 7 1020.4 - 0.0 - - - - - - -
19/08:30am 14.6 E 4 6 1020.1 - 0.0 - - - - - - -
19/08:00am 14.3 NE 6 9 1019.6 - 0.0 - - - - - - -
19/07:30am 13.9 ESE 4 5 1019.9 - 0.0 - - - - - - -
19/07:00am 13.7 E 5 7 1019.2 - 0.0 - - - - - - -
19/06:30am 13.6 E 1 5 1018.9 - 0.0 - - - - - - -
19/06:00am 13.5 S 1 4 1019.1 - 0.0 - - - - - - -
19/05:30am 13.6 S 5 7 1018.8 - 0.0 - - - - - - -
19/05:00am 13.7 NNE 3 5 1019.0 - 0.0 - - - - - - -
19/04:30am 13.9 WNW 4 7 1019.2 - 0.0 - - - - - - -
19/04:00am 13.2 CALM 0 0 1018.5 - 0.0 - - - - - - -
19/03:30am 13.3 NW 2 4 1018.7 - 0.0 - - - - - - -
19/03:00am 13.5 W 3 5 1019.0 - 0.0 - - - - - - -
19/02:30am 13.7 WNW 2 3 1019.4 - 0.0 - - - - - - -
19/02:00am 13.7 NW 3 5 1019.7 - 0.0 - - - - - - -
19/01:30am 14.1 WNW 7 11 1019.8 - 0.0 - - - - - - -
19/01:00am 14.5 W 10 12 1019.7 - 0.0 - - - - - - -
19/12:30am 14.5 WNW 9 12 1019.5 - 0.0 - - - - - - -
19/12:00am 14.9 W 11 15 1019.6 - 0.0 - - - - - - -
 
Date/Time
CDT
Temp

°C
Wind Pressure Rain
since 9am
mm
Weather Cloud Vis
km
Sea
Height
m
Swell
Dir
 
Speed
knots
Gust
knots
hPa Trend Height
m
Period
s
Dir
18/11:30pm 15.3 WNW 13 17 1019.6 - 0.0 - - - - - - -
18/11:00pm 15.3 NW 11 14 1019.2 - 0.0 - - - - - - -
18/10:30pm 15.8 WNW 13 16 1019.2 - 0.0 - - - - - - -
18/10:00pm 16.3 WNW 13 18 1019.5 - 0.0 - - - - - - -
18/09:30pm 16.7 NW 13 17 1019.6 - 0.0 - - - - - - -
18/09:00pm 17.4 NW 12 16 1019.6 - 0.0 - - - - - - -
18/08:30pm 18.8 NW 15 22 1019.1 - 0.0 - - - - - - -
18/08:00pm 19.4 NW 12 18 1018.5 - 0.0 - - - - - - -
18/07:30pm 21.0 NW 13 17 1018.1 - 0.0 - - - - - - -
18/07:00pm 22.4 NW 15 19 1017.7 - 0.0 - - - - - - -
18/06:30pm 22.8 NNW 15 20 1017.6 - 0.0 - - - - - - -
18/06:00pm 23.1 NW 14 19 1017.7 - 0.0 - - - - - - -
18/05:30pm 25.0 NW 11 17 1017.7 - 0.0 - - - - - - -
18/05:00pm 27.2 NW 11 19 1017.6 - 0.0 - - - - - - -
18/04:30pm 28.2 NNW 14 21 1017.4 - 0.0 - - - - - - -
18/04:22pm 27.9 NNW 15 25 1017.4 - 0.0 - - - - - - -
18/04:00pm 29.0 N 12 18 1017.7 - 0.0 - - - - - - -
18/03:30pm 27.8 N 13 20 1017.9 - 0.0 - - - - - - -
18/03:00pm 27.8 N 15 23 1017.9 - 0.0 - - - - - - -
18/02:30pm 26.1 N 15 23 1018.5 - 0.0 - - - - - - -
18/02:00pm 25.3 N 13 19 1018.8 - 0.0 - - - - - - -
18/01:30pm 25.1 N 17 25 1019.0 - 0.0 - - - - - - -
18/01:13pm 26.0 N 15 25 1019.0 - 0.0 - - - - - - -
18/01:00pm 25.7 N 17 25 1019.2 - 0.0 - - - - - - -
18/12:39pm 24.1 N 15 25 1019.7 - 0.0 - - - - - - -
18/12:30pm 24.1 N 14 21 1020.0 - 0.0 - - - - - - -
18/12:00pm 23.7 N 13 22 1020.6 - 0.0 - - - - - - -
18/11:30am 22.8 N 15 25 1021.0 - 0.0 - - - - - - -
18/11:19am 22.0 N 15 25 1021.2 - 0.0 - - - - - - -
18/11:00am 21.0 N 16 24 1021.2 - 0.0 - - - - - - -
18/10:31am 19.1 N 16 27 1021.6 - 0.0 - - - - - - -
18/10:30am 19.0 N 16 25 1021.6 - 0.0 - - - - - - -
18/10:05am 18.0 N 19 29 1021.6 - 0.0 - - - - - - -
18/10:00am 17.7 N 18 27 1021.6 - 0.0 - - - - - - -
18/09:48am 16.9 N 17 27 1021.8 - 0.0 - - - - - - -
18/09:30am 16.5 N 17 26 1022.2 - 0.0 - - - - - - -
18/09:00am 15.9 N 17 26 1022.2 - 0.0 - - - - - - -
18/08:33am 15.6 N 17 27 1022.4 - 0.0 - - - - - - -
18/08:30am 15.6 N 17 24 1022.5 - 0.0 - - - - - - -
18/08:00am 14.9 N 15 23 1022.5 - 0.0 - - - - - - -
18/07:30am 14.4 N 16 23 1022.2 - 0.0 - - - - - - -
18/07:00am 13.7 N 13 18 1022.0 - 0.0 - - - - - - -
18/06:30am 13.5 N 12 18 1022.3 - 0.0 - - - - - - -
18/06:00am 13.2 NNE 13 20 1021.5 - 0.0 - - - - - - -
18/05:30am 12.5 NNE 12 17 1021.1 - 0.0 - - - - - - -
18/05:00am 12.2 NNE 13 17 1021.2 - 0.0 - - - - - - -
18/04:30am 12.1 NNE 14 18 1021.5 - 0.0 - - - - - - -
18/04:00am 11.9 NNE 13 17 1021.5 - 0.0 - - - - - - -
18/03:30am 11.4 NE 12 16 1021.6 - 0.0 - - - - - - -
18/03:00am 11.3 NE 10 13 1022.1 - 0.0 - - - - - - -
18/02:30am 11.6 NE 10 13 1022.5 - 0.0 - - - - - - -
18/02:00am 11.7 NE 13 18 1022.4 - 0.0 - - - - - - -
18/01:30am 11.6 NE 13 18 1022.0 - 0.0 - - - - - - -
18/01:00am 11.4 NE 15 20 1022.2 - 0.0 - - - - - - -
18/12:30am 11.6 ENE 15 21 1022.0 - 0.0 - - - - - - -
18/12:00am 11.3 NNE 15 21 1022.0 - 0.0 - - - - - - -
 
Date/Time
CDT
Temp

°C
Wind Pressure Rain
since 9am
mm
Weather Cloud Vis
km
Sea
Height
m
Swell
Dir
 
Speed
knots
Gust
knots
hPa Trend Height
m
Period
s
Dir
17/11:30pm 11.7 NE 14 20 1022.6 - 0.0 - - - - - - -

Other Formats:

Comma delimited format used in spreadsheet applications
http://www.bom.gov.au/fwo/IDS60701/IDS60701.94826.axf

JavaScript Object Notation format (JSON) in row-major order
http://www.bom.gov.au/fwo/IDS60701/IDS60701.94826.json